createdAt,value
2019-01-13T00:00:38.786Z,1.20
2019-01-13T00:03:26.938Z,1.20
2019-01-13T00:06:14.757Z,1.30
2019-01-13T00:09:03.279Z,1.50
2019-01-13T00:11:51.396Z,1.57
2019-01-13T00:14:39.264Z,1.10
2019-01-13T00:17:27.049Z,1.13
2019-01-13T00:20:15.113Z,1.27
2019-01-13T00:23:03.079Z,1.30
2019-01-13T00:25:51.249Z,1.40
2019-01-13T00:28:39.319Z,1.40
2019-01-13T00:31:27.418Z,1.17
2019-01-13T00:34:15.774Z,1.30
2019-01-13T00:37:04.046Z,1.57
2019-01-13T00:39:52.030Z,1.60
2019-01-13T00:42:40.112Z,1.60
2019-01-13T00:45:27.853Z,2.00
2019-01-13T00:48:15.396Z,1.63
2019-01-13T00:51:03.287Z,1.90
2019-01-13T00:53:51.565Z,2.30
2019-01-13T00:56:39.522Z,2.17
2019-01-13T00:59:27.523Z,2.00
2019-01-13T01:02:15.604Z,2.50
2019-01-13T01:05:03.965Z,2.33
2019-01-13T01:07:52.009Z,2.77
2019-01-13T01:10:39.880Z,2.60
2019-01-13T01:13:27.982Z,2.70
2019-01-13T01:16:15.640Z,2.40
2019-01-13T01:19:03.454Z,2.87
2019-01-13T01:21:51.402Z,2.80
2019-01-13T01:24:39.113Z,2.30
2019-01-13T01:27:27.076Z,2.57
2019-01-13T01:30:17.262Z,2.87
2019-01-13T01:33:05.356Z,2.70
2019-01-13T01:35:53.514Z,2.20
2019-01-13T01:38:41.428Z,2.80
2019-01-13T01:41:29.808Z,2.50
2019-01-13T01:44:17.654Z,2.57
2019-01-13T01:47:05.450Z,2.30
2019-01-13T01:49:53.339Z,2.40
2019-01-13T01:52:41.410Z,2.10
2019-01-13T01:55:29.469Z,1.80
2019-01-13T01:58:17.641Z,2.00
2019-01-13T02:01:06.031Z,1.83
2019-01-13T02:03:53.946Z,1.70
2019-01-13T02:06:41.751Z,1.60
2019-01-13T02:09:29.592Z,1.53
2019-01-13T02:12:17.856Z,1.80
2019-01-13T02:15:08.639Z,1.40
2019-01-13T02:17:56.742Z,1.50
2019-01-13T02:20:44.699Z,1.30
2019-01-13T02:23:32.425Z,1.40
2019-01-13T02:26:20.059Z,1.40
2019-01-13T02:29:08.502Z,1.30
2019-01-13T02:31:55.959Z,1.23
2019-01-13T02:34:43.557Z,1.10
2019-01-13T02:37:31.241Z,1.23
2019-01-13T02:40:20.297Z,1.00
2019-01-13T02:43:08.144Z,1.00
2019-01-13T02:45:56.007Z,1.20
2019-01-13T02:48:43.600Z,1.20
2019-01-13T02:51:31.648Z,1.30
2019-01-13T02:54:19.476Z,1.30
2019-01-13T02:57:07.417Z,0.97
2019-01-13T02:59:55.040Z,0.90
2019-01-13T03:02:42.967Z,1.10
2019-01-13T03:05:30.849Z,1.13
2019-01-13T03:08:18.814Z,1.13
2019-01-13T03:11:06.723Z,0.90
2019-01-13T03:13:54.736Z,1.03
2019-01-13T03:16:42.723Z,1.07
2019-01-13T03:19:30.966Z,1.47
2019-01-13T03:22:18.507Z,1.30
2019-01-13T03:25:08.826Z,0.90
2019-01-13T03:27:56.842Z,1.20
2019-01-13T03:30:44.688Z,1.00
2019-01-13T03:33:32.453Z,1.00
2019-01-13T03:36:20.849Z,1.00
2019-01-13T03:39:09.558Z,0.97
2019-01-13T03:41:57.351Z,1.00
2019-01-13T03:44:45.154Z,1.10
2019-01-13T03:47:32.847Z,1.10
2019-01-13T03:50:22.710Z,0.97
2019-01-13T03:53:10.860Z,0.90
2019-01-13T03:55:58.678Z,0.90
2019-01-13T03:58:46.911Z,1.00
2019-01-13T04:01:35.098Z,1.20
2019-01-13T04:04:23.115Z,1.10
2019-01-13T04:07:10.899Z,0.70
2019-01-13T04:09:58.999Z,0.70
2019-01-13T04:12:47.064Z,0.70
2019-01-13T04:15:45.686Z,0.80
2019-01-13T04:18:33.755Z,0.80
2019-01-13T04:21:21.698Z,0.70
2019-01-13T04:24:09.678Z,0.73
2019-01-13T04:26:57.735Z,0.70
2019-01-13T04:29:45.504Z,0.80
2019-01-13T04:32:33.814Z,0.97
2019-01-13T04:35:21.879Z,0.63
2019-01-13T04:38:09.790Z,0.80
2019-01-13T04:40:58.043Z,0.70
2019-01-13T04:43:46.350Z,0.70
2019-01-13T04:46:34.351Z,0.90
2019-01-13T04:49:22.248Z,0.80
2019-01-13T04:52:10.162Z,0.70
2019-01-13T04:54:58.514Z,0.80
2019-01-13T04:57:46.323Z,0.90
2019-01-13T05:00:34.142Z,0.80
2019-01-13T05:03:21.918Z,0.73
2019-01-13T05:06:10.012Z,0.80
2019-01-13T05:08:58.190Z,0.80
2019-01-13T05:11:46.126Z,0.70
2019-01-13T05:14:34.382Z,0.90
2019-01-13T05:17:22.481Z,0.70
2019-01-13T05:20:13.106Z,0.80
2019-01-13T05:23:01.082Z,0.80
2019-01-13T05:25:49.147Z,0.90
2019-01-13T05:28:37.137Z,0.73
2019-01-13T05:31:25.282Z,0.77
2019-01-13T05:34:13.326Z,1.00
2019-01-13T05:37:01.080Z,0.80
2019-01-13T05:39:48.732Z,0.90
2019-01-13T05:42:36.642Z,0.80
2019-01-13T05:45:24.790Z,0.93
2019-01-13T05:48:12.878Z,0.80
2019-01-13T05:51:01.134Z,0.87
2019-01-13T05:53:49.058Z,0.90
2019-01-13T05:56:36.763Z,0.77
2019-01-13T05:59:24.757Z,0.80
2019-01-13T06:02:12.849Z,0.80
2019-01-13T06:05:01.059Z,0.77
2019-01-13T06:07:49.091Z,0.87
2019-01-13T06:10:37.242Z,0.83
2019-01-13T06:13:25.104Z,0.87
2019-01-13T06:16:13.452Z,0.70
2019-01-13T06:19:01.581Z,0.80
2019-01-13T06:21:49.717Z,0.80
2019-01-13T06:24:37.557Z,0.70
2019-01-13T06:27:25.775Z,0.90
2019-01-13T06:30:15.996Z,0.90
2019-01-13T06:33:04.027Z,1.00
2019-01-13T06:35:51.968Z,1.00
2019-01-13T06:38:39.801Z,0.80
2019-01-13T06:41:27.846Z,0.90
2019-01-13T06:44:16.219Z,0.90
2019-01-13T06:47:03.786Z,0.90
2019-01-13T06:49:51.532Z,1.07
2019-01-13T06:52:39.237Z,0.87
2019-01-13T06:55:27.426Z,0.70
2019-01-13T06:58:15.066Z,0.60
2019-01-13T07:01:03.004Z,0.87
2019-01-13T07:03:51.306Z,0.70
2019-01-13T07:06:39.448Z,0.73
2019-01-13T07:09:27.297Z,0.70
2019-01-13T07:12:15.207Z,0.53
2019-01-13T07:15:03.463Z,0.80
2019-01-13T07:17:51.237Z,0.80
2019-01-13T07:20:39.020Z,0.67
2019-01-13T07:23:27.004Z,3.40
2019-01-13T07:26:15.043Z,0.70
2019-01-13T07:29:03.062Z,0.60
2019-01-13T07:31:51.148Z,0.60
2019-01-13T07:34:39.331Z,0.60
2019-01-13T07:37:28.502Z,0.67
2019-01-13T07:40:18.480Z,0.50
2019-01-13T07:43:06.005Z,0.50
2019-01-13T07:45:53.795Z,0.60
2019-01-13T07:48:42.115Z,0.40
2019-01-13T07:51:29.717Z,0.50
2019-01-13T07:54:17.672Z,0.47
2019-01-13T07:57:05.440Z,0.53
2019-01-13T07:59:53.804Z,0.40
2019-01-13T08:02:42.054Z,0.40
2019-01-13T08:05:30.246Z,0.40
2019-01-13T08:08:18.128Z,0.50
2019-01-13T08:11:06.099Z,0.50
2019-01-13T08:13:54.315Z,0.50
2019-01-13T08:16:42.111Z,0.50
2019-01-13T08:19:30.197Z,0.50
2019-01-13T08:22:17.830Z,0.40
2019-01-13T08:25:07.111Z,0.50
2019-01-13T08:27:54.614Z,0.50
2019-01-13T08:30:42.038Z,0.40
2019-01-13T08:33:29.567Z,0.40
2019-01-13T08:36:17.845Z,0.40
2019-01-13T08:39:08.508Z,0.40
2019-01-13T08:41:56.293Z,0.50
2019-01-13T08:44:44.499Z,0.40
2019-01-13T08:47:32.710Z,0.43
2019-01-13T08:50:24.813Z,0.37
2019-01-13T08:53:12.745Z,0.40
2019-01-13T08:56:00.865Z,0.40
2019-01-13T08:58:49.075Z,0.50
2019-01-13T09:01:37.446Z,0.50
2019-01-13T09:04:25.661Z,0.40
2019-01-13T09:07:13.821Z,0.57
2019-01-13T09:10:02.109Z,0.40
2019-01-13T09:12:56.652Z,0.53
2019-01-13T09:15:39.791Z,0.50
2019-01-13T09:18:28.058Z,0.50
2019-01-13T09:21:17.538Z,0.40
2019-01-13T09:24:06.065Z,0.40
2019-01-13T09:26:54.887Z,0.50
2019-01-13T09:29:42.864Z,0.40
2019-01-13T09:32:31.230Z,0.50
2019-01-13T09:35:20.891Z,0.40
2019-01-13T09:38:08.974Z,0.40
2019-01-13T09:40:56.801Z,0.43
2019-01-13T09:43:44.828Z,0.40
2019-01-13T09:46:32.352Z,0.50
2019-01-13T09:49:20.219Z,0.47
2019-01-13T09:52:08.209Z,0.40
2019-01-13T09:54:56.219Z,0.43
2019-01-13T09:57:44.182Z,0.50
2019-01-13T10:00:36.831Z,0.40
2019-01-13T10:03:25.028Z,0.30
2019-01-13T10:06:12.973Z,0.47
2019-01-13T10:09:01.379Z,0.50
2019-01-13T10:11:49.341Z,0.40
2019-01-13T10:14:37.266Z,0.53
2019-01-13T10:17:25.262Z,0.60
2019-01-13T10:20:14.585Z,0.50
2019-01-13T10:23:02.416Z,0.50
2019-01-13T10:25:50.300Z,0.40
2019-01-13T10:28:38.104Z,0.50
2019-01-13T10:31:25.966Z,0.50
2019-01-13T10:34:14.023Z,0.40
2019-01-13T10:37:02.211Z,0.50
2019-01-13T10:39:49.839Z,0.40
2019-01-13T10:42:37.695Z,0.30
2019-01-13T10:45:25.847Z,0.50
2019-01-13T10:48:14.261Z,0.30
2019-01-13T10:51:02.112Z,0.43
2019-01-13T10:53:50.410Z,0.40
2019-01-13T10:56:37.963Z,0.40
2019-01-13T10:59:26.090Z,0.30
2019-01-13T11:02:13.846Z,0.30
2019-01-13T11:05:03.638Z,0.40
2019-01-13T11:07:52.536Z,0.30
2019-01-13T11:10:40.004Z,0.40
2019-01-13T11:13:28.293Z,0.40
2019-01-13T11:16:16.205Z,0.37
2019-01-13T11:19:04.469Z,0.40
2019-01-13T11:21:52.681Z,0.40
2019-01-13T11:24:40.559Z,0.40
2019-01-13T11:27:28.313Z,0.40
2019-01-13T11:30:19.060Z,0.33
2019-01-13T11:33:09.605Z,0.33
2019-01-13T11:35:56.183Z,0.40
2019-01-13T11:38:44.299Z,0.40
2019-01-13T11:41:32.095Z,0.50
2019-01-13T11:44:20.318Z,0.40
2019-01-13T11:47:08.020Z,0.37
2019-01-13T11:49:55.603Z,0.40
2019-01-13T11:52:43.564Z,0.30
2019-01-13T11:55:31.959Z,0.30
2019-01-13T11:58:20.065Z,0.30
2019-01-13T12:01:08.483Z,0.40
2019-01-13T12:03:56.287Z,0.30
2019-01-13T12:06:43.982Z,0.30
2019-01-13T12:09:32.222Z,0.30
2019-01-13T12:12:20.407Z,0.47
2019-01-13T12:15:10.772Z,0.40
2019-01-13T12:17:58.253Z,0.40
2019-01-13T12:20:46.202Z,0.30
2019-01-13T12:23:34.021Z,0.40
2019-01-13T12:26:22.016Z,0.40
2019-01-13T12:29:11.451Z,0.40
2019-01-13T12:31:59.753Z,0.30
2019-01-13T12:34:47.668Z,0.40
2019-01-13T12:37:35.865Z,0.40
2019-01-13T12:40:24.904Z,0.50
2019-01-13T12:43:12.714Z,0.50
2019-01-13T12:46:00.818Z,0.50
2019-01-13T12:48:48.908Z,0.50
2019-01-13T12:51:36.464Z,0.50
2019-01-13T12:54:24.564Z,0.40
2019-01-13T12:57:12.349Z,0.40
2019-01-13T13:00:00.409Z,0.40
2019-01-13T13:02:48.233Z,0.60
2019-01-13T13:05:36.036Z,0.40
2019-01-13T13:08:24.077Z,0.37
2019-01-13T13:11:12.218Z,0.33
2019-01-13T13:14:00.260Z,0.40
2019-01-13T13:16:47.923Z,0.40
2019-01-13T13:19:36.074Z,0.50
2019-01-13T13:22:23.618Z,0.40
2019-01-13T13:25:11.309Z,0.40
2019-01-13T13:27:59.265Z,0.43
2019-01-13T13:30:46.789Z,0.30
2019-01-13T13:33:38.737Z,0.40
2019-01-13T13:36:24.230Z,0.40
2019-01-13T13:39:12.097Z,0.40
2019-01-13T13:42:00.295Z,0.40
2019-01-13T13:44:49.489Z,0.30
2019-01-13T13:47:37.111Z,0.40
2019-01-13T13:50:25.868Z,0.33
2019-01-13T13:53:13.837Z,0.33
2019-01-13T13:56:01.509Z,0.50
2019-01-13T13:58:49.310Z,0.40
2019-01-13T14:01:37.077Z,0.60
2019-01-13T14:04:25.373Z,0.40
2019-01-13T14:07:13.421Z,0.50
2019-01-13T14:10:01.624Z,0.50
2019-01-13T14:12:49.706Z,0.50
2019-01-13T14:15:37.584Z,0.50
2019-01-13T14:18:25.207Z,0.60
2019-01-13T14:21:13.078Z,0.60
2019-01-13T14:24:00.937Z,0.30
2019-01-13T14:26:50.092Z,0.30
2019-01-13T14:29:37.801Z,0.60
2019-01-13T14:32:25.400Z,0.40
2019-01-13T14:35:13.411Z,0.50
2019-01-13T14:38:01.534Z,0.60
2019-01-13T14:40:49.723Z,0.50
2019-01-13T14:43:37.449Z,0.50
2019-01-13T14:46:25.348Z,0.50
2019-01-13T14:49:12.964Z,0.40
2019-01-13T14:52:00.771Z,0.70
2019-01-13T14:54:48.506Z,0.40
2019-01-13T14:57:36.102Z,0.50
2019-01-13T15:00:34.317Z,0.60
2019-01-13T15:03:22.474Z,0.60
2019-01-13T15:06:10.319Z,0.57
2019-01-13T15:08:58.164Z,0.60
2019-01-13T15:11:45.992Z,0.40
2019-01-13T15:14:33.945Z,0.50
2019-01-13T15:17:21.903Z,0.63
2019-01-13T15:20:12.447Z,0.50
2019-01-13T15:23:00.249Z,0.40
2019-01-13T15:25:47.826Z,0.50
2019-01-13T15:28:36.121Z,0.30
2019-01-13T15:31:24.169Z,0.63
2019-01-13T15:34:12.401Z,0.47
2019-01-13T15:37:00.475Z,0.40
2019-01-13T15:39:48.387Z,0.40
2019-01-13T15:42:36.409Z,0.50
2019-01-13T15:45:24.283Z,0.40
2019-01-13T15:48:12.466Z,0.50
2019-01-13T15:51:00.658Z,0.40
2019-01-13T15:53:48.247Z,0.50
2019-01-13T15:56:36.115Z,0.53
2019-01-13T15:59:24.345Z,0.60
2019-01-13T16:02:12.660Z,0.60
2019-01-13T16:05:00.621Z,0.30
2019-01-13T16:07:48.714Z,0.50
2019-01-13T16:10:36.831Z,0.63
2019-01-13T16:13:24.839Z,0.50
2019-01-13T16:16:12.863Z,0.50
2019-01-13T16:19:01.098Z,0.50
2019-01-13T16:21:49.061Z,0.50
2019-01-13T16:24:36.685Z,2.57
2019-01-13T16:27:24.976Z,0.93
2019-01-13T16:30:16.176Z,0.80
2019-01-13T16:33:04.057Z,0.40
2019-01-13T16:35:51.476Z,0.60
2019-01-13T16:38:39.670Z,0.60
2019-01-13T16:41:27.895Z,0.40
2019-01-13T16:44:15.816Z,0.40
2019-01-13T16:47:03.335Z,0.53
2019-01-13T16:49:51.366Z,0.40
2019-01-13T16:52:39.434Z,0.50
2019-01-13T16:55:27.856Z,0.30
2019-01-13T16:58:16.137Z,0.50
2019-01-13T17:01:04.242Z,0.40
2019-01-13T17:03:52.240Z,0.50
2019-01-13T17:06:40.081Z,0.50
2019-01-13T17:09:27.860Z,0.50
2019-01-13T17:12:15.580Z,0.70
2019-01-13T17:15:04.505Z,0.50
2019-01-13T17:17:52.550Z,0.60
2019-01-13T17:20:40.404Z,0.97
2019-01-13T17:23:28.336Z,0.60
2019-01-13T17:26:16.241Z,0.40
2019-01-13T17:29:04.203Z,0.40
2019-01-13T17:31:51.601Z,0.53
2019-01-13T17:34:39.751Z,0.50
2019-01-13T17:37:27.488Z,0.80
2019-01-13T17:40:18.116Z,0.60
2019-01-13T17:43:05.541Z,0.57
2019-01-13T17:45:53.410Z,0.60
2019-01-13T17:48:41.012Z,0.60
2019-01-13T17:51:29.242Z,0.57
2019-01-13T17:54:17.081Z,0.63
2019-01-13T17:57:05.177Z,0.73
2019-01-13T17:59:53.321Z,0.60
2019-01-13T18:02:41.642Z,0.97
2019-01-13T18:05:29.586Z,0.63
2019-01-13T18:08:17.673Z,0.80
2019-01-13T18:11:05.546Z,0.70
2019-01-13T18:13:53.318Z,0.70
2019-01-13T18:16:41.343Z,0.77
2019-01-13T18:19:29.033Z,0.70
2019-01-13T18:22:16.955Z,0.70
2019-01-13T18:25:05.168Z,0.80
2019-01-13T18:27:53.299Z,0.60
2019-01-13T18:30:41.039Z,0.73
2019-01-13T18:33:29.134Z,0.70
2019-01-13T18:36:17.438Z,0.80
2019-01-13T18:39:08.187Z,0.70
2019-01-13T18:41:56.059Z,1.00
2019-01-13T18:44:44.199Z,0.70
2019-01-13T18:47:32.676Z,0.80
2019-01-13T18:50:21.240Z,0.80
2019-01-13T18:53:11.827Z,0.70
2019-01-13T18:55:59.717Z,1.00
2019-01-13T18:58:47.622Z,0.90
2019-01-13T19:01:35.489Z,1.00
2019-01-13T19:04:23.784Z,0.90
2019-01-13T19:07:11.939Z,0.77
2019-01-13T19:10:00.161Z,1.00
2019-01-13T19:12:51.749Z,0.90
2019-01-13T19:15:39.706Z,1.10
2019-01-13T19:18:27.488Z,0.80
2019-01-13T19:21:15.695Z,0.83
2019-01-13T19:24:03.818Z,1.10
2019-01-13T19:26:51.980Z,0.80
2019-01-13T19:29:40.379Z,1.00
2019-01-13T19:32:28.605Z,0.80
2019-01-13T19:35:17.755Z,0.80
2019-01-13T19:38:06.167Z,0.80
2019-01-13T19:40:54.343Z,0.70
2019-01-13T19:43:42.948Z,0.77
2019-01-13T19:46:31.021Z,1.00
2019-01-13T19:49:18.760Z,0.80
2019-01-13T19:52:06.459Z,0.93
2019-01-13T19:54:54.789Z,0.93
2019-01-13T19:57:42.866Z,0.80
2019-01-13T20:00:33.182Z,0.90
2019-01-13T20:03:20.959Z,0.80
2019-01-13T20:06:09.031Z,1.00
2019-01-13T20:08:56.613Z,0.90
2019-01-13T20:11:44.496Z,0.87
2019-01-13T20:14:32.410Z,0.87
2019-01-13T20:17:20.710Z,1.00
2019-01-13T20:20:10.734Z,1.00
2019-01-13T20:22:58.650Z,1.20
2019-01-13T20:25:46.777Z,1.10
2019-01-13T20:28:34.935Z,1.17
2019-01-13T20:31:23.142Z,0.97
2019-01-13T20:34:11.339Z,1.20
2019-01-13T20:37:00.916Z,1.10
2019-01-13T20:39:48.771Z,1.20
2019-01-13T20:42:36.852Z,1.10
2019-01-13T20:45:30.704Z,1.10
2019-01-13T20:48:18.654Z,1.03
2019-01-13T20:51:06.154Z,1.27
2019-01-13T20:53:54.311Z,1.20
2019-01-13T20:56:42.459Z,1.03
2019-01-13T20:59:31.101Z,1.03
2019-01-13T21:02:19.076Z,1.17
2019-01-13T21:05:07.405Z,1.17
2019-01-13T21:07:55.362Z,1.00
2019-01-13T21:10:43.344Z,1.03
2019-01-13T21:13:31.693Z,1.20
2019-01-13T21:16:19.748Z,1.07
2019-01-13T21:19:08.265Z,1.17
2019-01-13T21:21:56.126Z,0.93
2019-01-13T21:24:44.311Z,1.00
2019-01-13T21:27:32.277Z,1.00
2019-01-13T21:30:22.734Z,1.00
2019-01-13T21:33:10.355Z,1.07
2019-01-13T21:35:58.292Z,1.20
2019-01-13T21:38:45.946Z,1.07
2019-01-13T21:41:33.471Z,1.00
2019-01-13T21:44:21.656Z,0.90
2019-01-13T21:47:09.818Z,0.80
2019-01-13T21:49:57.705Z,1.10
2019-01-13T21:52:45.792Z,1.00
2019-01-13T21:55:33.678Z,1.17
2019-01-13T21:58:21.880Z,1.10
2019-01-13T22:01:09.770Z,1.10
2019-01-13T22:03:57.835Z,1.00
2019-01-13T22:06:45.748Z,1.10
2019-01-13T22:09:34.051Z,1.10
2019-01-13T22:12:22.157Z,1.20
2019-01-13T22:15:10.774Z,1.10
2019-01-13T22:17:58.704Z,1.00
2019-01-13T22:20:46.959Z,1.10
2019-01-13T22:23:35.349Z,0.93
2019-01-13T22:26:23.045Z,1.17
2019-01-13T22:29:11.828Z,1.10
2019-01-13T22:31:59.660Z,1.37
2019-01-13T22:34:48.540Z,1.13
2019-01-13T22:37:36.646Z,1.40
2019-01-13T22:40:24.712Z,1.33
2019-01-13T22:43:12.699Z,1.10
2019-01-13T22:46:01.238Z,1.30
2019-01-13T22:48:48.649Z,1.20
2019-01-13T22:51:36.486Z,1.00
2019-01-13T22:54:24.344Z,1.10
2019-01-13T22:57:12.642Z,1.10
2019-01-13T23:00:00.437Z,1.20
2019-01-13T23:02:48.273Z,1.00
2019-01-13T23:05:36.509Z,0.90
2019-01-13T23:08:24.631Z,1.20
2019-01-13T23:11:12.482Z,1.23
2019-01-13T23:14:00.663Z,1.23
2019-01-13T23:16:48.472Z,1.10
2019-01-13T23:19:36.772Z,1.40
2019-01-13T23:22:24.908Z,1.50
2019-01-13T23:25:13.050Z,1.27
2019-01-13T23:28:00.930Z,1.93
2019-01-13T23:30:49.267Z,1.43
2019-01-13T23:33:37.082Z,1.50
2019-01-13T23:36:24.966Z,1.57
2019-01-13T23:39:13.017Z,1.57
2019-01-13T23:42:00.883Z,1.60
2019-01-13T23:44:48.862Z,1.37
2019-01-13T23:47:36.691Z,1.27
2019-01-13T23:50:24.415Z,1.30
2019-01-13T23:53:12.542Z,1.40
2019-01-13T23:56:00.136Z,1.20
2019-01-13T23:58:47.709Z,1.23
